sensor_id;sensor_type;location;lat;lon;timestamp;temperature;humidity
19945;DHT22;10134;50.952;6.930;2022-12-15T00:01:01;-2.30;99.90
19945;DHT22;10134;50.952;6.930;2022-12-15T00:03:46;-2.30;99.90
19945;DHT22;10134;50.952;6.930;2022-12-15T00:06:32;-2.30;99.90
19945;DHT22;10134;50.952;6.930;2022-12-15T00:09:18;-2.30;99.90
19945;DHT22;10134;50.952;6.930;2022-12-15T00:12:04;-2.40;99.90
19945;DHT22;10134;50.952;6.930;2022-12-15T00:14:51;-2.40;99.90
19945;DHT22;10134;50.952;6.930;2022-12-15T00:17:36;-2.40;99.90
19945;DHT22;10134;50.952;6.930;2022-12-15T00:20:22;-2.40;99.90
19945;DHT22;10134;50.952;6.930;2022-12-15T00:23:09;-2.40;99.90
19945;DHT22;10134;50.952;6.930;2022-12-15T00:25:56;-2.40;99.90
19945;DHT22;10134;50.952;6.930;2022-12-15T00:28:42;-2.40;99.90
19945;DHT22;10134;50.952;6.930;2022-12-15T00:31:28;-2.40;99.90
19945;DHT22;10134;50.952;6.930;2022-12-15T00:34:14;-2.40;99.90
19945;DHT22;10134;50.952;6.930;2022-12-15T00:36:59;-2.50;99.90
19945;DHT22;10134;50.952;6.930;2022-12-15T00:39:45;-2.50;99.90
19945;DHT22;10134;50.952;6.930;2022-12-15T00:42:13;-2.50;99.90
19945;DHT22;10134;50.952;6.930;2022-12-15T00:44:40;-2.50;99.90
19945;DHT22;10134;50.952;6.930;2022-12-15T00:47:07;-2.50;99.90
19945;DHT22;10134;50.952;6.930;2022-12-15T00:49:34;-2.50;99.90
19945;DHT22;10134;50.952;6.930;2022-12-15T00:52:20;-2.50;99.90
19945;DHT22;10134;50.952;6.930;2022-12-15T00:55:06;-2.60;99.90
19945;DHT22;10134;50.952;6.930;2022-12-15T00:57:53;-2.50;99.90
19945;DHT22;10134;50.952;6.930;2022-12-15T01:00:38;-2.60;99.90
19945;DHT22;10134;50.952;6.930;2022-12-15T01:03:24;-2.60;99.90
19945;DHT22;10134;50.952;6.930;2022-12-15T01:06:13;-2.60;99.90
19945;DHT22;10134;50.952;6.930;2022-12-15T01:09:00;-2.60;99.90
19945;DHT22;10134;50.952;6.930;2022-12-15T01:11:46;-2.70;99.90
19945;DHT22;10134;50.952;6.930;2022-12-15T01:14:32;-2.60;99.90
19945;DHT22;10134;50.952;6.930;2022-12-15T01:17:19;-2.70;99.90
19945;DHT22;10134;50.952;6.930;2022-12-15T01:20:06;-2.70;99.90
19945;DHT22;10134;50.952;6.930;2022-12-15T01:22:47;-2.70;99.90
19945;DHT22;10134;50.952;6.930;2022-12-15T01:25:16;-2.70;99.90
19945;DHT22;10134;50.952;6.930;2022-12-15T01:27:44;-2.70;99.90
19945;DHT22;10134;50.952;6.930;2022-12-15T01:30:14;-2.70;99.90
19945;DHT22;10134;50.952;6.930;2022-12-15T01:32:42;-2.70;99.90
19945;DHT22;10134;50.952;6.930;2022-12-15T01:35:13;-2.70;99.90
19945;DHT22;10134;50.952;6.930;2022-12-15T01:37:40;-2.70;99.90
19945;DHT22;10134;50.952;6.930;2022-12-15T01:40:13;-2.80;99.90
19945;DHT22;10134;50.952;6.930;2022-12-15T01:43:00;-2.80;99.90
19945;DHT22;10134;50.952;6.930;2022-12-15T01:48:05;-2.80;99.90
19945;DHT22;10134;50.952;6.930;2022-12-15T01:50:41;-2.80;99.90
19945;DHT22;10134;50.952;6.930;2022-12-15T01:53:11;-2.90;99.90
19945;DHT22;10134;50.952;6.930;2022-12-15T01:55:43;-2.80;99.90
19945;DHT22;10134;50.952;6.930;2022-12-15T01:58:17;-2.90;99.90
19945;DHT22;10134;50.952;6.930;2022-12-15T02:00:46;-2.90;99.90
19945;DHT22;10134;50.952;6.930;2022-12-15T02:03:14;-2.90;99.90
19945;DHT22;10134;50.952;6.930;2022-12-15T02:05:50;-2.90;99.90
19945;DHT22;10134;50.952;6.930;2022-12-15T02:08:18;-3.00;99.90
19945;DHT22;10134;50.952;6.930;2022-12-15T02:11:08;-3.00;99.90
19945;DHT22;10134;50.952;6.930;2022-12-15T02:14:03;-3.00;99.90
19945;DHT22;10134;50.952;6.930;2022-12-15T02:16:42;-3.00;99.90
19945;DHT22;10134;50.952;6.930;2022-12-15T02:19:44;-3.00;99.90
19945;DHT22;10134;50.952;6.930;2022-12-15T02:25:15;-3.00;99.90
19945;DHT22;10134;50.952;6.930;2022-12-15T02:27:57;-3.00;99.90
19945;DHT22;10134;50.952;6.930;2022-12-15T02:30:35;-3.10;99.90
19945;DHT22;10134;50.952;6.930;2022-12-15T02:33:20;-3.10;99.90
19945;DHT22;10134;50.952;6.930;2022-12-15T02:35:59;-3.10;99.90
19945;DHT22;10134;50.952;6.930;2022-12-15T02:38:36;-3.10;99.90
19945;DHT22;10134;50.952;6.930;2022-12-15T02:44:02;-3.10;99.90
19945;DHT22;10134;50.952;6.930;2022-12-15T02:47:03;-3.10;99.90
19945;DHT22;10134;50.952;6.930;2022-12-15T02:50:10;-3.20;99.90
19945;DHT22;10134;50.952;6.930;2022-12-15T02:55:29;-3.30;99.90
19945;DHT22;10134;50.952;6.930;2022-12-15T02:58:07;-3.30;99.90
19945;DHT22;10134;50.952;6.930;2022-12-15T03:03:39;-3.30;99.90
19945;DHT22;10134;50.952;6.930;2022-12-15T03:06:11;-3.30;99.90
19945;DHT22;10134;50.952;6.930;2022-12-15T03:08:39;-3.30;99.90
19945;DHT22;10134;50.952;6.930;2022-12-15T03:11:06;-3.30;99.90
19945;DHT22;10134;50.952;6.930;2022-12-15T03:13:34;-3.30;99.90
19945;DHT22;10134;50.952;6.930;2022-12-15T03:16:02;-3.30;99.90
19945;DHT22;10134;50.952;6.930;2022-12-15T03:18:30;-3.30;99.90
19945;DHT22;10134;50.952;6.930;2022-12-15T03:21:00;-3.30;99.90
19945;DHT22;10134;50.952;6.930;2022-12-15T03:23:30;-3.30;99.90
19945;DHT22;10134;50.952;6.930;2022-12-15T03:25:58;-3.30;99.90
19945;DHT22;10134;50.952;6.930;2022-12-15T03:28:26;-3.40;99.90
19945;DHT22;10134;50.952;6.930;2022-12-15T03:30:53;-3.30;99.90
19945;DHT22;10134;50.952;6.930;2022-12-15T03:33:22;-3.40;99.90
19945;DHT22;10134;50.952;6.930;2022-12-15T03:35:49;-3.40;99.90
19945;DHT22;10134;50.952;6.930;2022-12-15T03:38:17;-3.40;99.90
19945;DHT22;10134;50.952;6.930;2022-12-15T03:40:45;-3.40;99.90
19945;DHT22;10134;50.952;6.930;2022-12-15T03:43:13;-3.50;99.90
19945;DHT22;10134;50.952;6.930;2022-12-15T03:45:40;-3.50;99.90
19945;DHT22;10134;50.952;6.930;2022-12-15T03:48:08;-3.50;99.90
19945;DHT22;10134;50.952;6.930;2022-12-15T03:50:36;-3.50;99.90
19945;DHT22;10134;50.952;6.930;2022-12-15T03:53:04;-3.50;99.90
19945;DHT22;10134;50.952;6.930;2022-12-15T03:55:31;-3.50;99.90
19945;DHT22;10134;50.952;6.930;2022-12-15T03:57:59;-3.50;99.90
19945;DHT22;10134;50.952;6.930;2022-12-15T04:00:27;-3.50;99.90
19945;DHT22;10134;50.952;6.930;2022-12-15T04:02:54;-3.50;99.90
19945;DHT22;10134;50.952;6.930;2022-12-15T04:05:26;-3.50;99.90
19945;DHT22;10134;50.952;6.930;2022-12-15T04:07:55;-3.60;99.90
19945;DHT22;10134;50.952;6.930;2022-12-15T04:10:24;-3.60;99.90
19945;DHT22;10134;50.952;6.930;2022-12-15T04:13:05;-3.70;99.90
19945;DHT22;10134;50.952;6.930;2022-12-15T04:15:33;-3.70;99.90
19945;DHT22;10134;50.952;6.930;2022-12-15T04:18:02;-3.70;99.90
19945;DHT22;10134;50.952;6.930;2022-12-15T04:20:30;-3.70;99.90
19945;DHT22;10134;50.952;6.930;2022-12-15T04:22:59;-3.70;99.90
19945;DHT22;10134;50.952;6.930;2022-12-15T04:25:27;-3.70;99.90
19945;DHT22;10134;50.952;6.930;2022-12-15T04:28:13;-3.70;99.90
19945;DHT22;10134;50.952;6.930;2022-12-15T04:31:09;-3.70;99.90
19945;DHT22;10134;50.952;6.930;2022-12-15T04:33:58;-3.70;99.90
19945;DHT22;10134;50.952;6.930;2022-12-15T04:36:48;-3.70;99.90
19945;DHT22;10134;50.952;6.930;2022-12-15T04:39:35;-3.80;99.90
19945;DHT22;10134;50.952;6.930;2022-12-15T04:42:21;-3.90;99.90
19945;DHT22;10134;50.952;6.930;2022-12-15T04:45:08;-3.90;99.90
19945;DHT22;10134;50.952;6.930;2022-12-15T04:47:54;-3.90;99.90
19945;DHT22;10134;50.952;6.930;2022-12-15T04:50:40;-3.90;99.90
19945;DHT22;10134;50.952;6.930;2022-12-15T04:53:26;-3.90;99.90
19945;DHT22;10134;50.952;6.930;2022-12-15T04:56:14;-3.90;99.90
19945;DHT22;10134;50.952;6.930;2022-12-15T04:59:00;-3.90;99.90
19945;DHT22;10134;50.952;6.930;2022-12-15T05:01:46;-3.90;99.90
19945;DHT22;10134;50.952;6.930;2022-12-15T05:04:33;-3.90;99.90
19945;DHT22;10134;50.952;6.930;2022-12-15T05:07:19;-3.90;99.90
19945;DHT22;10134;50.952;6.930;2022-12-15T05:10:05;-3.90;99.90
19945;DHT22;10134;50.952;6.930;2022-12-15T05:12:52;-3.90;99.90
19945;DHT22;10134;50.952;6.930;2022-12-15T05:15:37;-3.90;99.90
19945;DHT22;10134;50.952;6.930;2022-12-15T05:18:23;-4.00;99.90
19945;DHT22;10134;50.952;6.930;2022-12-15T05:21:09;-4.00;99.90
19945;DHT22;10134;50.952;6.930;2022-12-15T05:23:55;-4.00;99.90
19945;DHT22;10134;50.952;6.930;2022-12-15T05:26:41;-4.00;99.90
19945;DHT22;10134;50.952;6.930;2022-12-15T05:29:26;-4.10;99.90
19945;DHT22;10134;50.952;6.930;2022-12-15T05:32:12;-4.00;99.90
19945;DHT22;10134;50.952;6.930;2022-12-15T05:34:39;-4.00;99.90
19945;DHT22;10134;50.952;6.930;2022-12-15T05:37:07;-4.00;99.90
19945;DHT22;10134;50.952;6.930;2022-12-15T05:39:34;-4.00;99.90
19945;DHT22;10134;50.952;6.930;2022-12-15T05:42:01;-3.90;99.90
19945;DHT22;10134;50.952;6.930;2022-12-15T05:44:29;-3.90;99.90
19945;DHT22;10134;50.952;6.930;2022-12-15T05:46:56;-3.90;99.90
19945;DHT22;10134;50.952;6.930;2022-12-15T05:49:23;-3.90;99.90
19945;DHT22;10134;50.952;6.930;2022-12-15T05:51:54;-3.90;99.90
19945;DHT22;10134;50.952;6.930;2022-12-15T05:54:24;-3.90;99.90
19945;DHT22;10134;50.952;6.930;2022-12-15T05:56:52;-3.90;99.90
19945;DHT22;10134;50.952;6.930;2022-12-15T05:59:19;-3.90;99.90
19945;DHT22;10134;50.952;6.930;2022-12-15T06:01:47;-3.90;99.90
19945;DHT22;10134;50.952;6.930;2022-12-15T06:04:14;-3.90;99.90
19945;DHT22;10134;50.952;6.930;2022-12-15T06:06:42;-3.80;99.90
19945;DHT22;10134;50.952;6.930;2022-12-15T06:09:09;-3.80;99.90
19945;DHT22;10134;50.952;6.930;2022-12-15T06:11:36;-3.80;99.90
19945;DHT22;10134;50.952;6.930;2022-12-15T06:14:04;-3.90;99.90
19945;DHT22;10134;50.952;6.930;2022-12-15T06:16:31;-3.90;99.90
19945;DHT22;10134;50.952;6.930;2022-12-15T06:19:00;-3.90;99.90
19945;DHT22;10134;50.952;6.930;2022-12-15T06:21:35;-3.90;99.90
19945;DHT22;10134;50.952;6.930;2022-12-15T06:24:04;-4.00;99.90
19945;DHT22;10134;50.952;6.930;2022-12-15T06:26:36;-4.00;99.90
19945;DHT22;10134;50.952;6.930;2022-12-15T06:29:06;-4.00;99.90
19945;DHT22;10134;50.952;6.930;2022-12-15T06:31:35;-3.90;99.90
19945;DHT22;10134;50.952;6.930;2022-12-15T06:34:04;-3.90;99.90
19945;DHT22;10134;50.952;6.930;2022-12-15T06:36:32;-3.90;99.90
19945;DHT22;10134;50.952;6.930;2022-12-15T06:39:02;-3.90;99.90
19945;DHT22;10134;50.952;6.930;2022-12-15T06:41:31;-3.90;99.90
19945;DHT22;10134;50.952;6.930;2022-12-15T06:43:59;-3.80;99.90
19945;DHT22;10134;50.952;6.930;2022-12-15T06:46:28;-3.90;99.90
19945;DHT22;10134;50.952;6.930;2022-12-15T06:48:55;-3.80;99.90
19945;DHT22;10134;50.952;6.930;2022-12-15T06:51:24;-3.80;99.90
19945;DHT22;10134;50.952;6.930;2022-12-15T06:53:51;-3.80;99.90
19945;DHT22;10134;50.952;6.930;2022-12-15T06:56:26;-3.80;99.90
19945;DHT22;10134;50.952;6.930;2022-12-15T06:59:03;-3.70;99.90
19945;DHT22;10134;50.952;6.930;2022-12-15T07:01:32;-3.70;99.90
19945;DHT22;10134;50.952;6.930;2022-12-15T07:03:59;-3.60;99.90
19945;DHT22;10134;50.952;6.930;2022-12-15T07:06:33;-3.60;99.90
19945;DHT22;10134;50.952;6.930;2022-12-15T07:09:09;-3.50;99.90
19945;DHT22;10134;50.952;6.930;2022-12-15T07:11:37;-3.50;99.90
19945;DHT22;10134;50.952;6.930;2022-12-15T07:14:04;-3.40;99.90
19945;DHT22;10134;50.952;6.930;2022-12-15T07:16:31;-3.40;99.90
19945;DHT22;10134;50.952;6.930;2022-12-15T07:18:58;-3.40;99.90
19945;DHT22;10134;50.952;6.930;2022-12-15T07:21:26;-3.30;99.90
19945;DHT22;10134;50.952;6.930;2022-12-15T07:23:53;-3.30;99.90
19945;DHT22;10134;50.952;6.930;2022-12-15T07:26:23;-3.20;99.90
19945;DHT22;10134;50.952;6.930;2022-12-15T07:28:51;-3.20;99.90
19945;DHT22;10134;50.952;6.930;2022-12-15T07:31:20;-3.20;99.90
19945;DHT22;10134;50.952;6.930;2022-12-15T07:33:48;-3.10;99.90
19945;DHT22;10134;50.952;6.930;2022-12-15T07:36:18;-3.10;99.90
19945;DHT22;10134;50.952;6.930;2022-12-15T07:38:45;-3.00;99.90
19945;DHT22;10134;50.952;6.930;2022-12-15T07:41:18;-3.00;99.90
19945;DHT22;10134;50.952;6.930;2022-12-15T07:43:46;-2.90;99.90
19945;DHT22;10134;50.952;6.930;2022-12-15T07:46:15;-2.90;99.90
19945;DHT22;10134;50.952;6.930;2022-12-15T07:48:42;-2.80;99.90
19945;DHT22;10134;50.952;6.930;2022-12-15T07:51:17;-2.80;99.90
19945;DHT22;10134;50.952;6.930;2022-12-15T07:53:47;-2.80;99.90
19945;DHT22;10134;50.952;6.930;2022-12-15T07:56:16;-2.70;99.90
19945;DHT22;10134;50.952;6.930;2022-12-15T07:58:44;-2.70;99.90
19945;DHT22;10134;50.952;6.930;2022-12-15T08:01:13;-2.70;99.90
19945;DHT22;10134;50.952;6.930;2022-12-15T08:03:41;-2.70;99.90
19945;DHT22;10134;50.952;6.930;2022-12-15T08:06:11;-2.60;99.90
19945;DHT22;10134;50.952;6.930;2022-12-15T08:08:40;-2.60;99.90
19945;DHT22;10134;50.952;6.930;2022-12-15T08:11:09;-2.60;99.90
19945;DHT22;10134;50.952;6.930;2022-12-15T08:13:38;-2.50;99.90
19945;DHT22;10134;50.952;6.930;2022-12-15T08:16:26;-2.50;99.90
19945;DHT22;10134;50.952;6.930;2022-12-15T08:18:54;-2.40;99.90
19945;DHT22;10134;50.952;6.930;2022-12-15T08:21:23;-2.40;99.90
19945;DHT22;10134;50.952;6.930;2022-12-15T08:23:50;-2.40;99.90
19945;DHT22;10134;50.952;6.930;2022-12-15T08:26:19;-2.30;99.90
19945;DHT22;10134;50.952;6.930;2022-12-15T08:28:53;-2.30;99.90
19945;DHT22;10134;50.952;6.930;2022-12-15T08:31:22;-2.30;99.90
19945;DHT22;10134;50.952;6.930;2022-12-15T08:33:50;-2.30;99.90
19945;DHT22;10134;50.952;6.930;2022-12-15T08:36:18;-2.20;99.90
19945;DHT22;10134;50.952;6.930;2022-12-15T08:38:46;-2.20;99.90
19945;DHT22;10134;50.952;6.930;2022-12-15T08:41:22;-2.20;99.90
19945;DHT22;10134;50.952;6.930;2022-12-15T08:43:50;-2.20;99.90
19945;DHT22;10134;50.952;6.930;2022-12-15T08:46:20;-2.20;99.90
19945;DHT22;10134;50.952;6.930;2022-12-15T08:48:49;-2.20;99.90
19945;DHT22;10134;50.952;6.930;2022-12-15T08:51:16;-2.20;99.90
19945;DHT22;10134;50.952;6.930;2022-12-15T08:53:44;-2.10;99.90
19945;DHT22;10134;50.952;6.930;2022-12-15T08:56:17;-2.10;99.90
19945;DHT22;10134;50.952;6.930;2022-12-15T08:58:46;-2.10;99.90
19945;DHT22;10134;50.952;6.930;2022-12-15T09:01:16;-2.10;99.90
19945;DHT22;10134;50.952;6.930;2022-12-15T09:03:50;-2.10;99.90
19945;DHT22;10134;50.952;6.930;2022-12-15T09:06:20;-2.10;99.90
19945;DHT22;10134;50.952;6.930;2022-12-15T09:08:48;-2.10;99.90
19945;DHT22;10134;50.952;6.930;2022-12-15T09:11:17;-2.10;99.90
19945;DHT22;10134;50.952;6.930;2022-12-15T09:13:44;-2.00;99.90
19945;DHT22;10134;50.952;6.930;2022-12-15T09:16:15;-2.00;99.90
19945;DHT22;10134;50.952;6.930;2022-12-15T09:18:45;-2.00;99.90
19945;DHT22;10134;50.952;6.930;2022-12-15T09:21:14;-2.00;99.90
19945;DHT22;10134;50.952;6.930;2022-12-15T09:23:45;-2.00;99.90
19945;DHT22;10134;50.952;6.930;2022-12-15T09:26:14;-2.00;99.90
19945;DHT22;10134;50.952;6.930;2022-12-15T09:28:42;-1.90;99.90
19945;DHT22;10134;50.952;6.930;2022-12-15T09:31:19;-1.90;99.90
19945;DHT22;10134;50.952;6.930;2022-12-15T09:33:49;-1.90;99.90
19945;DHT22;10134;50.952;6.930;2022-12-15T09:36:19;-1.90;99.90
19945;DHT22;10134;50.952;6.930;2022-12-15T09:38:46;-1.90;99.90
19945;DHT22;10134;50.952;6.930;2022-12-15T09:41:21;-1.90;99.90
19945;DHT22;10134;50.952;6.930;2022-12-15T09:44:16;-1.90;99.90
19945;DHT22;10134;50.952;6.930;2022-12-15T09:47:13;-1.80;99.90
19945;DHT22;10134;50.952;6.930;2022-12-15T09:49:59;-1.80;99.90
19945;DHT22;10134;50.952;6.930;2022-12-15T09:52:30;-1.80;99.90
19945;DHT22;10134;50.952;6.930;2022-12-15T09:54:58;-1.80;99.90
19945;DHT22;10134;50.952;6.930;2022-12-15T09:57:39;-1.80;99.90
19945;DHT22;10134;50.952;6.930;2022-12-15T10:09:29;-1.60;99.90
19945;DHT22;10134;50.952;6.930;2022-12-15T10:11:45;-1.60;99.90
19945;DHT22;10134;50.952;6.930;2022-12-15T10:17:27;-1.60;99.90
19945;DHT22;10134;50.952;6.930;2022-12-15T10:20:21;-1.60;99.90
19945;DHT22;10134;50.952;6.930;2022-12-15T10:22:49;-1.50;99.90
19945;DHT22;10134;50.952;6.930;2022-12-15T10:25:20;-1.60;99.90
19945;DHT22;10134;50.952;6.930;2022-12-15T10:30:57;-1.50;99.90
19945;DHT22;10134;50.952;6.930;2022-12-15T10:33:34;-1.40;99.90
19945;DHT22;10134;50.952;6.930;2022-12-15T10:36:14;-1.40;99.90
19945;DHT22;10134;50.952;6.930;2022-12-15T10:38:44;-1.40;99.90
19945;DHT22;10134;50.952;6.930;2022-12-15T10:41:24;-1.30;99.90
19945;DHT22;10134;50.952;6.930;2022-12-15T10:43:52;-1.30;99.90
19945;DHT22;10134;50.952;6.930;2022-12-15T10:46:24;-1.30;99.90
19945;DHT22;10134;50.952;6.930;2022-12-15T10:49:21;-1.30;99.90
19945;DHT22;10134;50.952;6.930;2022-12-15T10:51:55;-1.30;99.90
19945;DHT22;10134;50.952;6.930;2022-12-15T10:54:34;-1.30;99.90
19945;DHT22;10134;50.952;6.930;2022-12-15T10:57:24;-1.30;99.90
19945;DHT22;10134;50.952;6.930;2022-12-15T11:00:27;-1.30;99.90
19945;DHT22;10134;50.952;6.930;2022-12-15T11:02:56;-1.20;99.90
19945;DHT22;10134;50.952;6.930;2022-12-15T11:05:25;-1.20;99.90
19945;DHT22;10134;50.952;6.930;2022-12-15T11:07:54;-1.20;99.90
19945;DHT22;10134;50.952;6.930;2022-12-15T11:10:28;-1.10;99.90
19945;DHT22;10134;50.952;6.930;2022-12-15T11:13:21;-1.10;99.90
19945;DHT22;10134;50.952;6.930;2022-12-15T11:15:52;-1.10;99.90
19945;DHT22;10134;50.952;6.930;2022-12-15T11:21:18;-1.00;99.90
19945;DHT22;10134;50.952;6.930;2022-12-15T11:24:08;-1.00;99.90
19945;DHT22;10134;50.952;6.930;2022-12-15T11:29:50;-0.90;99.90
19945;DHT22;10134;50.952;6.930;2022-12-15T11:32:28;-0.90;99.90
19945;DHT22;10134;50.952;6.930;2022-12-15T11:34:58;-0.80;99.90
19945;DHT22;10134;50.952;6.930;2022-12-15T11:37:35;-0.80;99.90
19945;DHT22;10134;50.952;6.930;2022-12-15T11:46:17;-0.70;99.90
19945;DHT22;10134;50.952;6.930;2022-12-15T11:51:41;-0.60;99.90
19945;DHT22;10134;50.952;6.930;2022-12-15T11:54:27;-0.70;99.90
19945;DHT22;10134;50.952;6.930;2022-12-15T11:57:02;-0.80;99.90
19945;DHT22;10134;50.952;6.930;2022-12-15T12:11:11;-1.00;99.90
19945;DHT22;10134;50.952;6.930;2022-12-15T12:17:04;-1.00;99.90
19945;DHT22;10134;50.952;6.930;2022-12-15T12:19:44;-0.90;99.90
19945;DHT22;10134;50.952;6.930;2022-12-15T12:24:55;-0.80;99.90
19945;DHT22;10134;50.952;6.930;2022-12-15T12:30:19;-0.80;99.90
19945;DHT22;10134;50.952;6.930;2022-12-15T12:33:17;-0.80;99.90
19945;DHT22;10134;50.952;6.930;2022-12-15T12:35:52;-0.70;99.90
19945;DHT22;10134;50.952;6.930;2022-12-15T12:38:29;-0.70;99.90
19945;DHT22;10134;50.952;6.930;2022-12-15T12:44:46;-0.70;99.90
19945;DHT22;10134;50.952;6.930;2022-12-15T12:46:56;-0.60;99.90
19945;DHT22;10134;50.952;6.930;2022-12-15T12:49:36;-0.60;99.90
19945;DHT22;10134;50.952;6.930;2022-12-15T12:52:17;-0.60;99.90
19945;DHT22;10134;50.952;6.930;2022-12-15T12:54:53;-0.60;99.90
19945;DHT22;10134;50.952;6.930;2022-12-15T12:57:36;-0.60;99.90
19945;DHT22;10134;50.952;6.930;2022-12-15T13:07:55;-0.50;99.90
19945;DHT22;10134;50.952;6.930;2022-12-15T13:10:23;-0.50;99.90
19945;DHT22;10134;50.952;6.930;2022-12-15T13:12:53;-0.50;99.90
19945;DHT22;10134;50.952;6.930;2022-12-15T13:18:21;-0.40;99.90
19945;DHT22;10134;50.952;6.930;2022-12-15T13:20:53;-0.40;99.90
19945;DHT22;10134;50.952;6.930;2022-12-15T13:44:51;-0.40;99.90
19945;DHT22;10134;50.952;6.930;2022-12-15T13:47:28;-0.40;99.90
19945;DHT22;10134;50.952;6.930;2022-12-15T13:52:45;-0.40;99.90
19945;DHT22;10134;50.952;6.930;2022-12-15T13:55:38;-0.40;99.90
19945;DHT22;10134;50.952;6.930;2022-12-15T13:58:13;-0.40;99.90
19945;DHT22;10134;50.952;6.930;2022-12-15T14:00:55;-0.50;99.90
19945;DHT22;10134;50.952;6.930;2022-12-15T14:03:23;-0.50;99.90
19945;DHT22;10134;50.952;6.930;2022-12-15T14:05:56;-0.50;99.90
19945;DHT22;10134;50.952;6.930;2022-12-15T14:08:43;-0.60;99.90
19945;DHT22;10134;50.952;6.930;2022-12-15T14:11:22;-0.60;99.90
19945;DHT22;10134;50.952;6.930;2022-12-15T14:14:28;-0.60;99.90
19945;DHT22;10134;50.952;6.930;2022-12-15T14:17:00;-0.60;99.90
19945;DHT22;10134;50.952;6.930;2022-12-15T14:19:43;-0.60;99.90
19945;DHT22;10134;50.952;6.930;2022-12-15T14:22:23;-0.70;99.90
19945;DHT22;10134;50.952;6.930;2022-12-15T14:25:31;-0.70;99.90
19945;DHT22;10134;50.952;6.930;2022-12-15T14:27:58;-0.70;99.90
19945;DHT22;10134;50.952;6.930;2022-12-15T14:30:26;-0.80;99.90
19945;DHT22;10134;50.952;6.930;2022-12-15T14:33:09;-0.80;99.90
19945;DHT22;10134;50.952;6.930;2022-12-15T14:35:49;-0.80;99.90
19945;DHT22;10134;50.952;6.930;2022-12-15T14:38:30;-0.90;99.90
19945;DHT22;10134;50.952;6.930;2022-12-15T14:41:00;-0.90;99.90
19945;DHT22;10134;50.952;6.930;2022-12-15T14:43:32;-0.90;99.90
19945;DHT22;10134;50.952;6.930;2022-12-15T14:46:15;-0.90;99.90
19945;DHT22;10134;50.952;6.930;2022-12-15T14:48:50;-0.90;99.90
19945;DHT22;10134;50.952;6.930;2022-12-15T14:51:20;-1.00;99.90
19945;DHT22;10134;50.952;6.930;2022-12-15T14:53:50;-1.00;99.90
19945;DHT22;10134;50.952;6.930;2022-12-15T14:59:14;-1.10;99.90
19945;DHT22;10134;50.952;6.930;2022-12-15T15:01:57;-1.10;99.90
19945;DHT22;10134;50.952;6.930;2022-12-15T15:04:32;-1.10;99.90
19945;DHT22;10134;50.952;6.930;2022-12-15T15:07:02;-1.10;99.90
19945;DHT22;10134;50.952;6.930;2022-12-15T15:09:32;-1.10;99.90
19945;DHT22;10134;50.952;6.930;2022-12-15T15:12:13;-1.10;99.90
19945;DHT22;10134;50.952;6.930;2022-12-15T15:14:44;-1.20;99.90
19945;DHT22;10134;50.952;6.930;2022-12-15T15:20:13;-1.20;99.90
19945;DHT22;10134;50.952;6.930;2022-12-15T15:22:41;-1.30;99.90
19945;DHT22;10134;50.952;6.930;2022-12-15T15:25:39;-1.30;99.90
19945;DHT22;10134;50.952;6.930;2022-12-15T15:30:49;-1.40;99.90
19945;DHT22;10134;50.952;6.930;2022-12-15T15:33:23;-1.40;99.90
19945;DHT22;10134;50.952;6.930;2022-12-15T15:35:52;-1.40;99.90
19945;DHT22;10134;50.952;6.930;2022-12-15T15:38:40;-1.40;99.90
19945;DHT22;10134;50.952;6.930;2022-12-15T15:41:16;-1.40;99.90
19945;DHT22;10134;50.952;6.930;2022-12-15T15:43:44;-1.50;99.90
19945;DHT22;10134;50.952;6.930;2022-12-15T15:46:17;-1.50;99.90
19945;DHT22;10134;50.952;6.930;2022-12-15T15:48:48;-1.50;99.90
19945;DHT22;10134;50.952;6.930;2022-12-15T15:51:17;-1.50;99.90
19945;DHT22;10134;50.952;6.930;2022-12-15T15:53:44;-1.50;99.90
19945;DHT22;10134;50.952;6.930;2022-12-15T15:56:14;-1.50;99.90
19945;DHT22;10134;50.952;6.930;2022-12-15T15:58:42;-1.60;99.90
19945;DHT22;10134;50.952;6.930;2022-12-15T16:01:10;-1.60;99.90
19945;DHT22;10134;50.952;6.930;2022-12-15T16:03:40;-1.60;99.90
19945;DHT22;10134;50.952;6.930;2022-12-15T16:06:18;-1.60;99.90
19945;DHT22;10134;50.952;6.930;2022-12-15T16:08:49;-1.70;99.90
19945;DHT22;10134;50.952;6.930;2022-12-15T16:11:17;-1.70;99.90
19945;DHT22;10134;50.952;6.930;2022-12-15T16:13:46;-1.70;99.90
19945;DHT22;10134;50.952;6.930;2022-12-15T16:16:31;-1.70;99.90
19945;DHT22;10134;50.952;6.930;2022-12-15T16:18:59;-1.70;99.90
19945;DHT22;10134;50.952;6.930;2022-12-15T16:21:26;-1.80;99.90
19945;DHT22;10134;50.952;6.930;2022-12-15T16:23:55;-1.80;99.90
19945;DHT22;10134;50.952;6.930;2022-12-15T16:26:30;-1.80;99.90
19945;DHT22;10134;50.952;6.930;2022-12-15T16:28:58;-1.80;99.90
19945;DHT22;10134;50.952;6.930;2022-12-15T16:31:34;-1.80;99.90
19945;DHT22;10134;50.952;6.930;2022-12-15T16:34:08;-1.80;99.90
19945;DHT22;10134;50.952;6.930;2022-12-15T16:36:35;-1.90;99.90
19945;DHT22;10134;50.952;6.930;2022-12-15T16:39:03;-1.90;99.90
19945;DHT22;10134;50.952;6.930;2022-12-15T16:41:30;-1.90;99.90
19945;DHT22;10134;50.952;6.930;2022-12-15T16:43:58;-1.90;99.90
19945;DHT22;10134;50.952;6.930;2022-12-15T16:46:26;-1.90;99.90
19945;DHT22;10134;50.952;6.930;2022-12-15T16:48:53;-2.00;99.90
19945;DHT22;10134;50.952;6.930;2022-12-15T16:51:42;-2.00;99.90
19945;DHT22;10134;50.952;6.930;2022-12-15T16:54:15;-2.00;99.90
19945;DHT22;10134;50.952;6.930;2022-12-15T16:56:45;-2.00;99.90
19945;DHT22;10134;50.952;6.930;2022-12-15T16:59:17;-2.00;99.90
19945;DHT22;10134;50.952;6.930;2022-12-15T17:04:43;-2.00;99.90
19945;DHT22;10134;50.952;6.930;2022-12-15T17:07:12;-2.10;99.90
19945;DHT22;10134;50.952;6.930;2022-12-15T17:09:47;-2.10;99.90
19945;DHT22;10134;50.952;6.930;2022-12-15T17:12:16;-2.10;99.90
19945;DHT22;10134;50.952;6.930;2022-12-15T17:14:44;-2.10;99.90
19945;DHT22;10134;50.952;6.930;2022-12-15T17:17:16;-2.10;99.90
19945;DHT22;10134;50.952;6.930;2022-12-15T17:19:44;-2.10;99.90
19945;DHT22;10134;50.952;6.930;2022-12-15T17:22:31;-2.20;99.90
19945;DHT22;10134;50.952;6.930;2022-12-15T17:24:59;-2.20;99.90
19945;DHT22;10134;50.952;6.930;2022-12-15T17:27:27;-2.20;99.90
19945;DHT22;10134;50.952;6.930;2022-12-15T17:29:58;-2.20;99.90
19945;DHT22;10134;50.952;6.930;2022-12-15T17:32:26;-2.20;99.90
19945;DHT22;10134;50.952;6.930;2022-12-15T17:34:53;-2.20;99.90
19945;DHT22;10134;50.952;6.930;2022-12-15T17:37:20;-2.20;99.90
19945;DHT22;10134;50.952;6.930;2022-12-15T17:39:48;-2.20;99.90
19945;DHT22;10134;50.952;6.930;2022-12-15T17:42:18;-2.30;99.90
19945;DHT22;10134;50.952;6.930;2022-12-15T17:44:47;-2.30;99.90
19945;DHT22;10134;50.952;6.930;2022-12-15T17:47:17;-2.30;99.90
19945;DHT22;10134;50.952;6.930;2022-12-15T17:49:45;-2.30;99.90
19945;DHT22;10134;50.952;6.930;2022-12-15T17:52:21;-2.30;99.90
19945;DHT22;10134;50.952;6.930;2022-12-15T17:54:50;-2.40;99.90
19945;DHT22;10134;50.952;6.930;2022-12-15T17:57:18;-2.40;99.90
19945;DHT22;10134;50.952;6.930;2022-12-15T17:59:45;-2.40;99.90
19945;DHT22;10134;50.952;6.930;2022-12-15T18:02:13;-2.40;99.90
19945;DHT22;10134;50.952;6.930;2022-12-15T18:04:42;-2.40;99.90
19945;DHT22;10134;50.952;6.930;2022-12-15T18:07:21;-2.40;99.90
19945;DHT22;10134;50.952;6.930;2022-12-15T18:09:49;-2.50;99.90